Data for 10/26/2013

Time Sea-Level Adjusted Pressure Absolute Pressure Temperature Relative Humidity Dew Point Precipitation   
(mb) (inHg) (mb) (inHg) (C) (F) (%) (C) (F) (mm) (in)
00:05 1028 30.36 857 25.31 0.9 33.7 67 -4.4 24 0 0
00:10 1028 30.36 857 25.31 1.3 34.3 59 -5.8 21.5 0 0
00:15 1028 30.36 857 25.31 2.7 36.8 56 -5.3 22.5 0 0
00:20 1028 30.36 857 25.31 2.5 36.5 60 -4.5 23.9 0 0
00:25 1028 30.36 857 25.31 2 35.6 60 -5 23.1 0 0
00:30 1028 30.36 857 25.31 2.2 35.9 60 -4.7 23.5 0 0
00:35 1028 30.36 857 25.31 1.6 34.8 63 -4.7 23.6 0 0
00:40 1028 30.36 857 25.31 0.9 33.7 66 -4.7 23.6 0 0
00:45 1028 30.36 857 25.31 0.8 33.4 65 -5.1 22.8 0 0
00:50 1028 30.36 857 25.31 0.8 33.4 68 -4.4 24.1 0 0
00:55 1028 30.36 857 25.31 0 32 72 -4.5 23.9 0 0
01:00 1028 30.36 857 25.31 -0.4 31.2 72 -4.8 23.3 0 0
01:05 1028 30.36 857 25.31 -0.3 31.5 72 -4.6 23.6 0 0
01:10 1028 30.36 857 25.31 -0.6 31 73 -4.8 23.3 0 0
01:15 1028 30.36 857 25.31 0.5 33 65 -5.3 22.5 0 0
01:20 1028 30.36 857 25.31 0.7 33.2 65 -5.2 22.6 0 0
01:25 1028 30.36 857 25.31 0.5 32.9 67 -4.9 23.2 0 0
01:30 1028 30.36 857 25.31 0.3 32.5 68 -5 22.9 0 0
01:35 1028 30.36 857 25.31 0.1 32.2 71 -4.6 23.7 0 0
01:40 1028 30.36 857 25.31 0.4 32.8 68 -4.8 23.3 0 0
01:45 1028 30.36 857 25.31 1 33.8 65 -4.9 23.2 0 0
01:50 1028 30.36 857 25.31 1.3 34.4 62 -5.1 22.9 0 0
01:55 1028 30.36 857 25.31 1.9 35.4 63 -4.5 24 0 0
02:00 1028 30.36 857 25.31 1.2 34.2 66 -4.4 24.1 0 0
02:05 1028 30.36 857 25.31 1 33.8 66 -4.6 23.7 0 0
02:10 1028 30.36 857 25.31 1.4 34.5 63 -4.9 23.3 0 0
02:15 1028 30.36 857 25.31 1.3 34.3 68 -4 24.8 0 0
02:20 1028 30.36 857 25.31 -0.1 31.7 70 -5 23 0 0
02:25 1028 30.36 857 25.31 0.1 32.3 71 -4.6 23.8 0 0
02:30 1028 30.36 857 25.31 -0.5 31.1 74 -4.5 23.9 0 0
02:35 1028 30.36 857 25.31 -1 30.2 76 -4.8 23.4 0 0
02:40 1028 30.36 857 25.31 -1.2 29.8 75 -5.1 22.8 0 0
02:45 1028 30.36 857 25.31 -0.8 30.5 73 -5.1 22.8 0 0
02:50 1028 30.36 857 25.31 -0.5 31 73 -4.9 23.3 0 0
02:55 1028 30.36 857 25.31 -0.4 31.4 71 -5.1 22.9 0 0
03:00 1028 30.36 857 25.31 -0.6 30.8 73 -5 23.1 0 0
03:05 1028 30.36 857 25.31 -0.7 30.7 72 -5.2 22.6 0 0
03:10 1028 30.36 857 25.31 -1 30.1 75 -4.8 23.3 0 0
03:15 1028 30.36 857 25.31 -1.4 29.5 76 -5.1 22.9 0 0
03:20 1028 30.36 857 25.31 -1.5 29.3 77 -5 23.1 0 0
03:25 1028 30.36 857 25.31 -1.3 29.8 74 -5.3 22.4 0 0
03:30 1028 30.36 857 25.31 -1 30.3 73 -5.1 22.8 0 0
03:35 1028 30.36 857 25.31 -0.7 30.7 70 -5.6 22 0 0
03:40 1028 30.36 857 25.31 0.4 32.7 64 -5.7 21.7 0 0
03:45 1028 30.36 857 25.31 1.2 34.1 65 -4.8 23.4 0 0
03:50 1028 30.36 857 25.31 0.9 33.7 67 -4.5 23.9 0 0
03:55 1028 30.36 857 25.31 0.5 32.8 69 -4.6 23.7 0 0
04:00 1028 30.36 857 25.31 0.3 32.6 67 -5.1 22.8 0 0
04:05 1028 30.36 857 25.31 -0.2 31.7 72 -4.7 23.6 0 0
04:10 1028 30.36 857 25.31 -0.8 30.6 73 -5.1 22.8 0 0
04:15 1028 30.36 857 25.31 -1.4 29.5 77 -5 23.1 0 0
04:20 1028 30.36 857 25.31 -1.2 29.9 75 -5.1 22.8 0 0
04:25 1028 30.36 857 25.31 -1.4 29.4 78 -4.8 23.3 0 0
04:30 1028 30.36 857 25.31 -2.1 28.3 80 -5.1 22.8 0 0
04:35 1028 30.36 857 25.31 -2 28.3 79 -5.2 22.6 0 0
04:40 1028 30.36 857 25.31 -1.1 29.9 75 -5 23 0 0
04:45 1028 30.36 857 25.31 -1.1 30 76 -4.8 23.3 0 0
04:50 1028 30.36 857 25.31 -1.8 28.8 79 -5 23.1 0 0
04:55 1028 30.36 857 25.31 -1.9 28.5 79 -5.1 22.8 0 0
05:00 1028 30.36 857 25.31 -1.8 28.7 79 -5 22.9 0 0
05:05 1028 30.36 857 25.31 -1.8 28.8 78 -5.1 22.8 0 0
05:10 1028 30.36 857 25.31 -1.4 29.4 78 -4.8 23.3 0 0
05:15 1028 30.36 857 25.31 -1.6 29.2 78 -4.9 23.2 0 0
05:20 1028 30.36 857 25.31 -1 30.3 76 -4.7 23.5 0 0
05:25 1028 30.36 857 25.31 -0.9 30.5 75 -4.8 23.3 0 0
05:30 1028 30.36 857 25.31 -1.6 29.1 79 -4.9 23.3 0 0
05:35 1028 30.36 857 25.31 -2.5 27.6 82 -5.2 22.7 0 0
05:40 1028 30.36 857 25.31 -2.4 27.6 80 -5.3 22.4 0 0
05:45 1028 30.36 857 25.31 -2 28.3 80 -5.1 22.9 0 0
05:50 1028 30.36 857 25.31 -2.8 27 83 -5.2 22.6 0 0
05:55 1028 30.36 857 25.31 -3.1 26.4 85 -5.3 22.4 0 0
06:00 1028 30.36 857 25.31 -2.9 26.7 83 -5.4 22.4 0 0
06:05 1028 30.36 857 25.31 -2.4 27.8 80 -5.4 22.4 0 0
06:10 1028 30.36 857 25.31 -1.9 28.5 79 -5.1 22.8 0 0
06:15 1028 30.36 857 25.31 -1.6 29.1 78 -4.9 23.2 0 0
06:20 1028 30.36 857 25.31 -1.9 28.6 80 -4.9 23.2 0 0
06:25 1028 30.36 857 25.31 -2.3 27.8 83 -4.8 23.3 0 0
06:30 1028 30.36 857 25.31 -1.8 28.8 79 -4.9 23.1 0 0
06:35 1028 30.36 857 25.31 -1.5 29.3 77 -5.1 22.8 0 0
06:40 1028 30.36 857 25.31 -2.1 28.2 79 -5.3 22.5 0 0
06:45 1028 30.36 857 25.31 -3 26.6 84 -5.4 22.3 0 0
06:50 1028 30.36 857 25.31 -3 26.6 81 -5.7 21.7 0 0
06:55 1028 30.36 857 25.31 -2.9 26.7 82 -5.5 22 0 0
07:00 1028 30.36 857 25.31 -2.7 27.1 81 -5.4 22.2 0 0
07:05 1028 30.36 857 25.31 -2.8 26.9 81 -5.6 21.9 0 0
07:10 1028 30.36 857 25.31 -2.6 27.3 81 -5.4 22.2 0 0
07:15 1028 30.36 857 25.31 -3 26.6 83 -5.5 22.2 0 0
07:20 1028 30.36 857 25.31 -2.5 27.6 81 -5.3 22.4 0 0
07:25 1028 30.36 857 25.31 -1.2 29.8 75 -5.2 22.7 0 0
07:30 1028 30.36 857 25.31 -0.5 31.1 73 -4.7 23.6 0 0
07:35 1028 30.36 857 25.31 -0.9 30.5 75 -4.8 23.4 0 0
07:40 1028 30.36 857 25.31 -2 28.4 80 -5.1 22.9 0 0
07:45 1028 30.36 857 25.31 -2.2 28.1 79 -5.3 22.4 0 0
07:50 1028 30.36 857 25.31 -3.1 26.3 82 -5.8 21.6 0 0
07:55 1028 30.36 857 25.31 -3.9 24.9 86 -5.9 21.3 0 0
08:00 1028 30.36 857 25.31 -3.9 24.9 87 -5.8 21.6 0 0
08:05 1028 30.36 857 25.31 -3.3 26 82 -6 21.3 0 0
08:10 1028 30.36 857 25.31 -2.8 27 80 -5.7 21.8 0 0
08:15 1028 30.36 857 25.31 -2.9 26.8 81 -5.6 21.9 0 0
08:20 1028 30.36 857 25.31 -3.5 25.6 85 -5.7 21.7 0 0
08:25 1028 30.36 857 25.31 -2.9 26.8 82 -5.6 22 0 0
08:30 1028 30.36 857 25.31 -2.4 27.6 81 -5.2 22.6 0 0
08:35 1028 30.36 857 25.31 -2.2 28.1 81 -5 23.1 0 0
08:40 1028 30.36 857 25.31 -1.6 29.2 80 -4.7 23.6 0 0
08:45 1028 30.36 857 25.31 -0.9 30.3 78 -4.3 24.2 0 0
08:50 1028 30.36 857 25.31 -0.4 31.3 77 -4 24.8 0 0
08:55 1028 30.36 857 25.31 0.1 32.2 76 -3.6 25.5 0 0
09:00 1028 30.36 857 25.31 0.8 33.5 73 -3.4 25.8 0 0
09:05 1028 30.36 857 25.31 1.7 35.1 70 -3.3 26.1 0 0
09:10 1028 30.36 857 25.31 2 35.6 69 -3 26.6 0 0
09:15 1028 30.36 857 25.31 2.6 36.6 66 -3.1 26.4 0 0
09:20 1028 30.36 857 25.31 2.9 37.3 66 -2.8 27 0 0
09:25 1028 30.36 857 25.31 3.4 38.1 63 -3 26.7 0 0
09:30 1028 30.36 857 25.31 4.1 39.4 62 -2.6 27.3 0 0
09:35 1028 30.36 857 25.31 4.8 40.6 58 -2.9 26.8 0 0
09:40 1028 30.36 857 25.31 5.4 41.7 54 -3.2 26.3 0 0
09:45 1028 30.36 857 25.31 5.7 42.3 54 -2.8 27 0 0
09:50 1028 30.36 857 25.31 6 42.7 52 -3.3 26.1 0 0
09:55 1028 30.36 857 25.31 6.3 43.3 49 -3.5 25.6 0 0
10:00 1028 30.36 857 25.31 6.7 44 52 -2.4 27.7 0 0
10:05 1028 30.36 857 25.31 6.8 44.3 50 -3 26.7 0 0
10:10 1028 30.36 857 25.31 6.9 44.4 48 -3.4 25.9 0 0
10:15 1028 30.36 857 25.31 7.2 45 44 -4.1 24.7 0 0
10:20 1028 30.36 857 25.31 7.5 45.4 45 -3.8 25.2 0 0
10:25 1028 30.36 857 25.31 7.9 46.2 43 -3.8 25.1 0 0
10:30 1028 30.36 857 25.31 8 46.4 46 -3 26.6 0 0
10:35 1028 30.36 857 25.31 8.4 47.2 46 -2.6 27.4 0 0
10:40 1028 30.36 857 25.31 8.3 46.9 46 -2.7 27.1 0 0
10:45 1028 30.36 857 25.31 8.4 47.2 43 -3.4 25.9 0 0
10:50 1028 30.36 857 25.31 8.7 47.7 42 -3.3 26.1 0 0
10:55 1028 30.36 857 25.31 8.6 47.5 43 -3.3 26.1 0 0
11:00 1028 30.36 857 25.31 8.9 48 45 -2.3 27.9 0 0
11:05 1028 30.36 857 25.31 8.8 47.9 42 -3.2 26.2 0 0
11:10 1028 30.36 857 25.31 8.7 47.6 42 -3.4 25.9 0 0
11:15 1028 30.36 857 25.31 8.6 47.4 44 -3 26.5 0 0
11:20 1028 30.36 857 25.31 8.7 47.6 45 -2.6 27.4 0 0
11:25 1028 30.36 857 25.31 8.7 47.7 44 -2.9 26.8 0 0
11:30 1028 30.36 857 25.31 8.8 47.9 44 -2.8 26.9 0 0
11:35 1028 30.36 857 25.31 9.3 48.7 46 -1.7 28.9 0 0
11:40 1028 30.36 857 25.31 9.5 49.1 45 -1.7 28.9 0 0
11:45 1028 30.36 857 25.31 9.8 49.6 43 -2.3 27.9 0 0
11:50 1028 30.36 857 25.31 9.8 49.6 45 -1.6 29.1 0 0
11:55 1028 30.36 857 25.31 9.8 49.7 42 -2.4 27.6 0 0
12:00 1028 30.36 857 25.31 10.1 50.1 41 -2.7 27.1 0 0
12:05 1028 30.36 857 25.31 10.2 50.3 44 -1.4 29.5 0 0
12:10 1028 30.36 857 25.31 10.7 51.2 39 -2.7 27.2 0 0
12:15 1028 30.36 857 25.31 10.7 51.3 41 -2.1 28.3 0 0
12:20 1028 30.36 857 25.31 11 51.7 38 -2.6 27.3 0 0
12:25 1028 30.36 857 25.31 11.5 52.6 40 -1.7 28.9 0 0
12:30 1028 30.36 857 25.31 11.4 52.4 39 -2 28.4 0 0
12:35 1028 30.36 857 25.31 11.7 53.1 35 -3.3 26.1 0 0
12:40 1028 30.36 857 25.31 11.8 53.3 37 -2.5 27.5 0 0
12:45 1027 30.33 857 25.31 12.1 53.7 36 -2.4 27.6 0 0
12:50 1027 30.33 857 25.31 12.6 54.7 35 -2.4 27.7 0 0
12:55 1027 30.33 857 25.31 13.1 55.5 33 -2.6 27.4 0 0
13:00 1027 30.33 856 25.28 12.9 55.2 34 -2.6 27.2 0 0
13:05 1027 30.33 856 25.28 12.9 55.2 36 -1.6 29.1 0 0
13:10 1027 30.33 856 25.28 13 55.3 32 -3.1 26.4 0 0
13:15 1027 30.33 856 25.28 13.2 55.7 35 -1.8 28.8 0 0
13:20 1027 30.33 856 25.28 13.3 55.9 35 -1.7 29 0 0
13:25 1027 30.33 856 25.28 13.3 56 32 -3 26.5 0 0
13:30 1027 30.33 856 25.28 13.5 56.2 32 -2.6 27.3 0 0
13:35 1027 30.33 856 25.28 13.9 57 32 -2.6 27.4 0 0
13:40 1027 30.33 856 25.28 13.8 56.8 33 -2.2 28 0 0
13:45 1027 30.33 856 25.28 13.9 56.9 32 -2.6 27.3 0 0
13:50 1026 30.3 856 25.28 13.8 56.8 30 -3.3 26.1 0 0
13:55 1026 30.3 856 25.28 13.8 56.8 32 -2.6 27.3 0 0
14:00 1026 30.3 855 25.25 13.9 57.1 33 -2.1 28.2 0 0
14:05 1026 30.3 855 25.25 14.3 57.8 30 -3.1 26.5 0 0
14:10 1026 30.3 855 25.25 14.5 58.1 29 -3.3 26.1 0 0
14:15 1026 30.3 855 25.25 14.5 58.1 27 -4.4 24.1 0 0
14:20 1026 30.3 855 25.25 14.6 58.3 29 -3.1 26.5 0 0
14:25 1026 30.3 855 25.25 15.1 59.1 28 -3.2 26.3 0 0
14:30 1026 30.3 855 25.25 15.4 59.6 30 -2 28.4 0 0
14:35 1026 30.3 855 25.25 15.5 60 28 -2.7 27.1 0 0
14:40 1026 30.3 855 25.25 15.3 59.5 27 -3.3 26 0 0
14:45 1026 30.3 855 25.25 15.4 59.7 29 -2.4 27.7 0 0
14:50 1026 30.3 855 25.25 15.4 59.7 27 -3.4 25.9 0 0
14:55 1025 30.27 855 25.25 15.7 60.2 29 -2.4 27.7 0 0
15:00 1025 30.27 855 25.25 15.7 60.2 26 -3.6 25.6 0 0
15:05 1025 30.27 854 25.22 15.8 60.4 27 -2.9 26.8 0 0
15:10 1025 30.27 854 25.22 15.9 60.5 25 -4.2 24.4 0 0
15:15 1025 30.27 854 25.22 15.8 60.5 27 -3.2 26.2 0 0
15:20 1025 30.27 854 25.22 15.8 60.4 25 -4 24.9 0 0
15:25 1025 30.27 854 25.22 15.7 60.3 27 -3 26.5 0 0
15:30 1025 30.27 854 25.22 15.9 60.7 27 -2.9 26.8 0 0
15:35 1025 30.27 854 25.22 16.2 61.1 26 -3.5 25.8 0 0
15:40 1025 30.27 854 25.22 16 60.8 27 -3.1 26.4 0 0
15:45 1025 30.27 854 25.22 16.1 61 27 -3 26.6 0 0
15:50 1025 30.27 854 25.22 16.1 61 25 -4 24.8 0 0
15:55 1025 30.27 854 25.22 16.4 61.4 27 -2.8 26.9 0 0
16:00 1025 30.27 854 25.22 16.3 61.3 26 -3.1 26.4 0 0
16:05 1025 30.27 854 25.22 16.4 61.5 28 -2.1 28.2 0 0
16:10 1025 30.27 854 25.22 16.7 62 26 -3 26.5 0 0
16:15 1025 30.27 854 25.22 16.8 62.2 26 -3 26.7 0 0
16:20 1025 30.27 854 25.22 16.8 62.2 26 -2.6 27.2 0 0
16:25 1024 30.24 854 25.22 16.3 61.4 25 -3.6 25.6 0 0
16:30 1024 30.24 854 25.22 16.2 61.2 28 -2.2 28 0 0
16:35 1024 30.24 854 25.22 16.3 61.4 26 -2.9 26.8 0 0
16:40 1024 30.24 854 25.22 16.5 61.6 25 -3.6 25.6 0 0
16:45 1024 30.24 853 25.19 16.4 61.6 25 -3.8 25.2 0 0
16:50 1024 30.24 853 25.19 16.6 61.8 26 -2.7 27.1 0 0
16:55 1024 30.24 853 25.19 16.4 61.6 26 -2.9 26.8 0 0
17:00 1024 30.24 853 25.19 16.7 62 24 -3.7 25.4 0 0
17:05 1024 30.24 853 25.19 16.7 62.1 24 -3.7 25.4 0 0
17:10 1024 30.24 853 25.19 16.8 62.3 28 -1.5 29.3 0 0
17:15 1024 30.24 853 25.19 16.5 61.7 29 -1.3 29.7 0 0
17:20 1024 30.24 853 25.19 16 60.8 31 -1 30.3 0 0
17:25 1024 30.24 853 25.19 15.6 60 33 -0.5 31.1 0 0
17:30 1024 30.24 853 25.19 15 59 35 -0.4 31.4 0 0
17:35 1024 30.24 853 25.19 14.6 58.3 33 -1.4 29.4 0 0
17:40 1024 30.24 853 25.19 14.3 57.8 36 -0.5 31.1 0 0
17:45 1024 30.24 853 25.19 13.9 57 37 -0.5 31.1 0 0
17:50 1024 30.24 853 25.19 13.4 56 39 -0.1 31.8 0 0
17:55 1024 30.24 853 25.19 12.6 54.6 38 -1.4 29.5 0 0
18:00 1024 30.24 853 25.19 12.7 54.9 36 -2.1 28.3 0 0
18:05 1024 30.24 853 25.19 12.6 54.7 34 -2.6 27.2 0 0
18:10 1023 30.21 853 25.19 12.4 54.4 37 -1.9 28.6 0 0
18:15 1023 30.21 853 25.19 11.6 53 33 -4 24.8 0 0
18:20 1023 30.21 853 25.19 11.6 52.9 37 -2.5 27.5 0 0
18:25 1023 30.21 853 25.19 9.9 49.9 44 -1.6 29.1 0 0
18:30 1023 30.21 853 25.19 8.1 46.5 56 -0.1 31.8 0 0
18:35 1023 30.21 853 25.19 5.9 42.5 64 -0.5 31.1 0 0
18:40 1023 30.21 852 25.16 5.1 41.1 66 -0.7 30.7 0 0
18:45 1023 30.21 852 25.16 4.7 40.5 65 -1.2 29.9 0 0
18:50 1023 30.21 852 25.16 4.3 39.8 70 -0.7 30.8 0 0
18:55 1023 30.21 852 25.16 3.8 38.8 71 -1 30.3 0 0
19:00 1023 30.21 852 25.16 3.7 38.7 71 -1.1 30 0 0
19:05 1023 30.21 852 25.16 3.4 38.1 71 -1.3 29.7 0 0
19:10 1023 30.21 852 25.16 3.7 38.6 69 -1.4 29.5 0 0
19:15 1023 30.21 852 25.16 3.7 38.7 69 -1.3 29.6 0 0
19:20 1023 30.21 852 25.16 3.7 38.7 69 -1.4 29.4 0 0
19:25 1023 30.21 852 25.16 3.6 38.5 69 -1.5 29.3 0 0
19:30 1023 30.21 852 25.16 3.5 38.3 69 -1.6 29.2 0 0
19:35 1023 30.21 852 25.16 3.3 37.9 70 -1.7 28.9 0 0
19:40 1023 30.21 852 25.16 3.6 38.5 67 -1.9 28.5 0 0
19:45 1023 30.21 852 25.16 3.9 39 67 -1.7 29 0 0
19:50 1023 30.21 852 25.16 3.7 38.6 66 -2.1 28.2 0 0
19:55 1023 30.21 852 25.16 3.9 39 66 -1.9 28.7 0 0
20:00 1023 30.21 852 25.16 3.4 38.1 68 -1.9 28.5 0 0
20:05 1023 30.21 852 25.16 3.4 38 67 -2.2 28 0 0
20:10 1023 30.21 852 25.16 3.7 38.6 64 -2.5 27.5 0 0
20:15 1023 30.21 852 25.16 3.5 38.2 65 -2.4 27.7 0 0
20:20 1023 30.21 852 25.16 3.1 37.5 67 -2.4 27.6 0 0
20:25 1023 30.21 852 25.16 2.6 36.7 68 -2.7 27.2 0 0
20:30 1023 30.21 852 25.16 2.3 36.2 68 -2.9 26.8 0 0
20:35 1023 30.21 852 25.16 2.6 36.7 67 -2.8 26.9 0 0
20:40 1023 30.21 852 25.16 2.6 36.7 67 -2.8 26.9 0 0
20:45 1023 30.21 852 25.16 3.2 37.8 57 -4.6 23.8 0 0
20:50 1023 30.21 852 25.16 5.5 41.8 53 -3.4 25.8 0 0
20:55 1023 30.21 852 25.16 5.7 42.3 52 -3.4 25.8 0 0
21:00 1023 30.21 852 25.16 5.9 42.6 52 -3.2 26.2 0 0
21:05 1023 30.21 852 25.16 5.6 42.1 52 -3.5 25.6 0 0
21:10 1023 30.21 852 25.16 5.7 42.3 52 -3.3 26.1 0 0
21:15 1023 30.21 852 25.16 5.6 42.1 52 -3.4 25.8 0 0
21:20 1023 30.21 852 25.16 5.6 42.1 52 -3.6 25.6 0 0
21:25 1023 30.21 852 25.16 5.5 42 52 -3.6 25.6 0 0
21:30 1023 30.21 852 25.16 5.2 41.4 53 -3.6 25.4 0 0
21:35 1023 30.21 852 25.16 5.3 41.5 51 -4 24.8 0 0
21:40 1023 30.21 852 25.16 5.5 41.8 50 -4.1 24.6 0 0
21:45 1023 30.21 852 25.16 5.5 42 51 -3.8 25.1 0 0
21:50 1023 30.21 852 25.16 5.4 41.7 51 -3.8 25.1 0 0
21:55 1023 30.21 852 25.16 5.3 41.6 52 -3.6 25.5 0 0
22:00 1023 30.21 852 25.16 4.6 40.2 57 -3.2 26.3 0 0
22:05 1023 30.21 852 25.16 3.8 38.8 58 -3.8 25.2 0 0
22:10 1023 30.21 852 25.16 3.5 38.2 59 -3.7 25.3 0 0
22:15 1023 30.21 852 25.16 3 37.4 60 -4.1 24.6 0 0
22:20 1023 30.21 852 25.16 3 37.4 58 -4.4 24.1 0 0
22:25 1023 30.21 852 25.16 2.7 36.8 61 -4 24.8 0 0
22:30 1023 30.21 852 25.16 2.4 36.3 62 -4.1 24.7 0 0
22:35 1023 30.21 852 25.16 2 35.5 64 -4.2 24.5 0 0
22:40 1023 30.21 852 25.16 1.4 34.6 67 -3.9 24.9 0 0
22:45 1023 30.21 852 25.16 0.8 33.4 70 -4.1 24.6 0 0
22:50 1023 30.21 852 25.16 1 33.8 68 -4.3 24.2 0 0
22:55 1023 30.21 852 25.16 1.2 34.1 66 -4.5 23.8 0 0
23:00 1023 30.21 852 25.16 1.4 34.6 64 -4.7 23.5 0 0
23:05 1022 30.18 852 25.16 2.3 36.1 59 -4.8 23.4 0 0
23:10 1022 30.18 852 25.16 2.8 37.1 56 -5 23 0 0
23:15 1022 30.18 852 25.16 3.8 38.9 53 -5 23 0 0
23:20 1022 30.18 852 25.16 4.3 39.7 52 -4.8 23.4 0 0
23:25 1022 30.18 851 25.13 4.6 40.2 51 -4.7 23.5 0 0
23:30 1022 30.18 851 25.13 3.6 38.5 56 -4.4 24.1 0 0
23:35 1022 30.18 851 25.13 3 37.4 55 -5.1 22.8 0 0
23:40 1022 30.18 851 25.13 3.1 37.5 59 -4.1 24.5 0 0
23:45 1022 30.18 851 25.13 1.9 35.5 63 -4.4 24 0 0
23:50 1022 30.18 851 25.13 1.6 35 63 -4.7 23.6 0 0
23:55 1022 30.18 851 25.13 1.7 35 65 -4.2 24.5 0 0
24:00 1022 30.18 851 25.13 0.6 33 71 -4 24.7 0 0